createdAt,value
2023-02-21T00:00:57.333Z,74.50
2023-02-21T00:03:51.823Z,74.44
2023-02-21T00:06:41.916Z,74.39
2023-02-21T00:09:31.868Z,74.46
2023-02-21T00:12:32.394Z,74.42
2023-02-21T00:15:22.215Z,74.62
2023-02-21T00:18:15.069Z,74.52
2023-02-21T00:21:04.654Z,74.48
2023-02-21T00:23:55.936Z,74.27
2023-02-21T00:26:45.597Z,74.31
2023-02-21T00:29:35.753Z,74.27
2023-02-21T00:32:25.942Z,74.23
2023-02-21T00:35:16.089Z,74.33
2023-02-21T00:38:07.683Z,74.53
2023-02-21T00:40:58.100Z,74.67
2023-02-21T00:43:54.131Z,74.68
2023-02-21T00:46:44.080Z,74.66
2023-02-21T00:49:33.572Z,74.75
2023-02-21T00:52:23.532Z,74.83
2023-02-21T00:55:13.262Z,74.87
2023-02-21T00:58:02.947Z,75.17
2023-02-21T01:00:55.862Z,75.35
2023-02-21T01:03:46.401Z,75.72
2023-02-21T01:06:36.125Z,76.19
2023-02-21T01:09:33.513Z,76.70
2023-02-21T01:12:23.704Z,76.98
2023-02-21T01:15:13.136Z,77.33
2023-02-21T01:18:03.517Z,77.45
2023-02-21T01:20:58.149Z,77.69
2023-02-21T01:23:49.837Z,77.76
2023-02-21T01:26:39.577Z,77.75
2023-02-21T01:29:32.892Z,77.86
2023-02-21T01:32:23.798Z,78.11
2023-02-21T01:35:13.636Z,78.52
2023-02-21T01:38:03.868Z,79.44
2023-02-21T01:40:53.715Z,80.52
2023-02-21T01:43:45.118Z,81.54
2023-02-21T01:46:36.419Z,82.15
2023-02-21T01:49:30.659Z,83.00
2023-02-21T01:52:23.743Z,83.55
2023-02-21T01:55:23.198Z,84.20
2023-02-21T01:58:33.208Z,84.98
2023-02-21T02:01:27.049Z,85.26
2023-02-21T02:04:18.246Z,85.45
2023-02-21T02:07:11.362Z,85.61
2023-02-21T02:10:01.936Z,85.84
2023-02-21T02:12:54.549Z,86.17
2023-02-21T02:15:42.549Z,86.30
2023-02-21T02:18:31.917Z,86.52
2023-02-21T02:21:43.722Z,86.77
2023-02-21T02:24:35.386Z,87.19
2023-02-21T02:27:49.917Z,87.27
2023-02-21T02:31:22.010Z,87.27
2023-02-21T02:34:26.532Z,87.20
2023-02-21T02:37:13.424Z,87.04
2023-02-21T02:39:55.200Z,86.88
2023-02-21T02:44:01.478Z,86.24
2023-02-21T02:46:49.225Z,85.99
2023-02-21T02:49:29.069Z,85.84
2023-02-21T02:52:06.656Z,85.58
2023-02-21T02:54:39.048Z,85.18
2023-02-21T02:57:13.429Z,85.13
2023-02-21T03:00:07.839Z,85.07
2023-02-21T03:03:09.609Z,85.07
2023-02-21T03:06:01.193Z,85.14
2023-02-21T03:08:47.151Z,85.25
2023-02-21T03:11:28.352Z,85.32
2023-02-21T03:14:11.890Z,85.34
2023-02-21T03:16:49.361Z,85.38
2023-02-21T03:19:29.056Z,85.43
2023-02-21T03:22:10.099Z,85.54
2023-02-21T03:24:55.930Z,85.47
2023-02-21T03:27:39.370Z,85.44
2023-02-21T03:30:52.800Z,85.72
2023-02-21T03:33:30.979Z,85.89
2023-02-21T03:36:13.554Z,85.96
2023-02-21T03:38:50.640Z,86.17
2023-02-21T03:41:25.785Z,86.34
2023-02-21T03:44:08.615Z,86.44
2023-02-21T03:46:55.190Z,86.60
2023-02-21T03:49:30.056Z,86.60
2023-02-21T03:52:13.815Z,86.76
2023-02-21T03:54:49.668Z,86.76
2023-02-21T03:57:42.296Z,86.83
2023-02-21T04:00:34.627Z,86.93
2023-02-21T04:03:19.111Z,86.98
2023-02-21T04:06:17.641Z,87.09
2023-02-21T04:08:53.258Z,87.15
2023-02-21T04:11:36.810Z,87.24
2023-02-21T04:14:29.150Z,87.30
2023-02-21T04:17:09.990Z,87.41
2023-02-21T04:19:56.359Z,87.48
2023-02-21T04:22:40.642Z,87.62
2023-02-21T04:25:31.853Z,87.71
2023-02-21T04:28:24.110Z,87.86
2023-02-21T04:31:07.579Z,87.98
2023-02-21T04:34:11.354Z,88.15
2023-02-21T04:36:46.188Z,88.19
2023-02-21T04:39:21.812Z,88.29
2023-02-21T04:42:05.612Z,88.56
2023-02-21T04:45:00.268Z,88.72
2023-02-21T04:47:37.960Z,88.90
2023-02-21T04:50:15.461Z,89.03
2023-02-21T04:53:06.610Z,89.08
2023-02-21T04:55:57.448Z,89.09
2023-02-21T04:58:44.777Z,89.45
2023-02-21T05:01:37.944Z,89.60
2023-02-21T05:04:30.207Z,89.83
2023-02-21T05:07:22.711Z,89.92
2023-02-21T05:10:16.088Z,90.08
2023-02-21T05:13:08.397Z,90.19
2023-02-21T05:15:44.058Z,90.30
2023-02-21T05:18:28.841Z,90.53
2023-02-21T05:21:23.821Z,90.81
2023-02-21T05:24:08.177Z,91.15
2023-02-21T05:26:46.595Z,91.52
2023-02-21T05:29:32.781Z,91.89
2023-02-21T05:32:14.486Z,92.27
2023-02-21T05:35:05.737Z,92.66
2023-02-21T05:37:40.484Z,92.96
2023-02-21T05:40:25.787Z,93.47
2023-02-21T05:43:10.788Z,93.95
2023-02-21T05:46:20.999Z,94.31
2023-02-21T05:49:05.074Z,94.71
2023-02-21T05:51:47.389Z,95.04
2023-02-21T06:52:33.302Z,100.00
2023-02-21T06:55:07.459Z,100.00
2023-02-21T06:57:40.470Z,100.00
2023-02-21T07:00:12.496Z,100.00
2023-02-21T07:02:44.984Z,100.00
2023-02-21T07:05:17.310Z,100.00
2023-02-21T07:07:54.044Z,99.98
2023-02-21T07:10:29.207Z,99.75
2023-02-21T07:13:01.734Z,99.42
2023-02-21T07:15:34.122Z,99.34
2023-02-21T07:18:06.858Z,99.36
2023-02-21T07:20:41.735Z,99.44
2023-02-21T07:23:16.159Z,99.60
2023-02-21T07:25:49.759Z,99.60
2023-02-21T07:28:20.494Z,99.63
2023-02-21T07:30:52.891Z,99.75
2023-02-21T07:33:45.134Z,99.81
2023-02-21T07:36:20.415Z,99.54
2023-02-21T07:38:56.019Z,99.47
2023-02-21T07:41:26.604Z,99.24
2023-02-21T07:43:59.621Z,99.11
2023-02-21T07:46:32.043Z,98.88
2023-02-21T07:49:04.189Z,98.78
2023-02-21T07:51:36.760Z,98.50
2023-02-21T07:54:29.570Z,98.13
2023-02-21T07:57:10.621Z,97.72
2023-02-21T07:59:55.827Z,97.45
2023-02-21T08:02:48.822Z,97.21
2023-02-21T08:05:42.199Z,96.96
2023-02-21T08:08:34.656Z,96.58
2023-02-21T08:11:27.369Z,96.44
2023-02-21T08:14:19.855Z,95.99
2023-02-21T08:17:10.497Z,95.53
2023-02-21T08:19:51.335Z,95.35
2023-02-21T08:45:10.847Z,90.98
2023-02-21T08:47:56.627Z,90.54
2023-02-21T08:50:49.448Z,90.13
2023-02-21T08:53:27.393Z,89.72
2023-02-21T08:56:14.205Z,89.01
2023-02-21T08:58:56.131Z,88.31
2023-02-21T09:01:40.195Z,87.82
2023-02-21T09:04:19.901Z,87.83
2023-02-21T09:06:58.083Z,87.83
2023-02-21T09:09:51.090Z,87.48
2023-02-21T09:12:23.332Z,87.24
2023-02-21T09:14:55.662Z,87.32
2023-02-21T09:17:27.982Z,87.28
2023-02-21T09:20:23.974Z,86.96
2023-02-21T09:23:05.782Z,86.91
2023-02-21T09:25:58.615Z,86.97
2023-02-21T09:28:33.918Z,87.12
2023-02-21T09:31:14.980Z,86.94
2023-02-21T09:33:50.443Z,87.13
2023-02-21T09:36:42.805Z,86.98
2023-02-21T09:39:29.981Z,86.66
2023-02-21T09:42:18.269Z,86.15
2023-02-21T09:44:59.746Z,85.69
2023-02-21T09:47:47.222Z,85.29
2023-02-21T09:50:27.866Z,84.36
2023-02-21T09:53:06.136Z,84.00
2023-02-21T09:55:42.480Z,84.61
2023-02-21T09:58:30.359Z,84.43
2023-02-21T10:01:10.129Z,83.49
2023-02-21T10:03:52.385Z,83.47
2023-02-21T10:06:44.675Z,83.07
2023-02-21T10:09:39.348Z,81.67
2023-02-21T10:12:24.733Z,81.41
2023-02-21T10:15:24.893Z,81.08
2023-02-21T10:18:06.893Z,81.29
2023-02-21T10:21:05.084Z,81.62
2023-02-21T10:24:04.971Z,82.14
2023-02-21T10:26:54.818Z,81.28
2023-02-21T10:29:52.011Z,81.37
2023-02-21T10:32:44.595Z,81.79
2023-02-21T10:35:22.003Z,81.16
2023-02-21T10:38:00.727Z,81.10
2023-02-21T10:40:44.154Z,81.49
2023-02-21T10:43:33.019Z,81.44
2023-02-21T10:46:29.116Z,81.06
2023-02-21T10:49:22.928Z,80.88
2023-02-21T10:52:10.662Z,80.97
2023-02-21T10:55:04.964Z,80.72
2023-02-21T10:57:44.502Z,80.93
2023-02-21T11:00:39.369Z,81.06
2023-02-21T11:03:27.638Z,80.68
2023-02-21T11:06:11.675Z,81.58
2023-02-21T11:08:47.168Z,81.01
2023-02-21T11:11:40.586Z,80.37
2023-02-21T11:14:27.253Z,79.34
2023-02-21T11:17:23.156Z,78.82
2023-02-21T11:19:57.515Z,78.06
2023-02-21T11:22:42.959Z,77.57
2023-02-21T11:25:25.709Z,77.21
2023-02-21T11:28:18.873Z,77.19
2023-02-21T11:31:09.194Z,77.07
2023-02-21T11:33:43.644Z,77.17
2023-02-21T11:36:18.891Z,78.03
2023-02-21T11:39:19.224Z,78.35
2023-02-21T11:41:55.783Z,78.44
2023-02-21T11:44:39.645Z,79.20
2023-02-21T11:47:27.032Z,80.57
2023-02-21T11:50:32.963Z,82.90
2023-02-21T11:53:18.426Z,84.73
2023-02-21T11:56:03.772Z,86.73
2023-02-21T11:59:04.448Z,88.30
2023-02-21T12:01:48.616Z,90.39
2023-02-21T12:04:39.073Z,92.13
2023-02-21T12:07:42.323Z,92.73
2023-02-21T12:10:47.441Z,93.37
2023-02-21T12:13:38.210Z,94.23
2023-02-21T12:16:43.138Z,94.80
2023-02-21T12:19:28.692Z,95.78
2023-02-21T12:22:23.075Z,97.26
2023-02-21T12:25:11.168Z,97.00
2023-02-21T12:28:14.248Z,96.97
2023-02-21T12:31:15.358Z,95.78
2023-02-21T12:34:22.343Z,95.10
2023-02-21T12:37:14.040Z,94.52
2023-02-21T12:40:21.153Z,93.34
2023-02-21T12:43:33.833Z,92.28
2023-02-21T12:46:15.699Z,91.70
2023-02-21T12:48:56.930Z,91.59
2023-02-21T12:51:42.428Z,91.15
2023-02-21T12:54:19.799Z,91.29
2023-02-21T12:57:17.408Z,91.72
2023-02-21T13:00:19.390Z,92.22
2023-02-21T13:03:24.608Z,93.49
2023-02-21T13:06:22.210Z,94.20
2023-02-21T13:09:23.267Z,94.42
2023-02-21T13:12:10.887Z,94.35
2023-02-21T13:14:50.502Z,93.65
2023-02-21T13:17:34.161Z,92.84
2023-02-21T13:20:10.468Z,92.30
2023-02-21T13:23:37.302Z,92.09
2023-02-21T13:26:29.436Z,91.59
2023-02-21T13:29:02.177Z,91.85
2023-02-21T13:31:46.026Z,91.48
2023-02-21T13:34:45.265Z,91.47
2023-02-21T13:37:24.784Z,89.69
2023-02-21T13:40:09.205Z,89.12
2023-02-21T13:43:11.242Z,89.46
2023-02-21T13:45:45.893Z,89.35
2023-02-21T13:48:31.076Z,88.50
2023-02-21T13:51:06.014Z,88.03
2023-02-21T13:54:10.339Z,87.49
2023-02-21T13:56:49.394Z,87.08
2023-02-21T13:59:38.239Z,87.14
2023-02-21T14:02:31.193Z,87.09
2023-02-21T14:05:10.064Z,87.14
2023-02-21T14:08:07.982Z,87.83
2023-02-21T14:10:47.826Z,88.23
2023-02-21T14:13:38.169Z,87.98
2023-02-21T14:16:28.670Z,87.60
2023-02-21T14:19:20.738Z,87.37
2023-02-21T14:22:11.289Z,87.12
2023-02-21T14:24:49.574Z,87.47
2023-02-21T14:27:42.164Z,87.26
2023-02-21T14:30:31.832Z,86.65
2023-02-21T14:33:30.951Z,86.63
2023-02-21T14:36:25.168Z,85.87
2023-02-21T14:39:18.190Z,84.86
2023-02-21T14:42:13.876Z,84.65
2023-02-21T14:45:02.549Z,84.00
2023-02-21T14:48:09.955Z,84.08
2023-02-21T14:51:48.916Z,84.82
2023-02-21T14:55:15.429Z,85.09
2023-02-21T14:58:33.670Z,84.87
2023-02-21T15:01:18.304Z,85.24
2023-02-21T15:04:02.670Z,85.50
2023-02-21T15:07:02.082Z,85.85
2023-02-21T15:09:43.176Z,85.83
2023-02-21T15:12:26.806Z,86.05
2023-02-21T15:15:21.348Z,85.86
2023-02-21T15:18:26.337Z,85.11
2023-02-21T15:21:24.047Z,84.88
2023-02-21T15:24:16.921Z,85.15
2023-02-21T15:27:15.448Z,85.21
2023-02-21T15:30:22.385Z,84.81
2023-02-21T15:33:33.344Z,84.67
2023-02-21T15:36:39.769Z,84.41
2023-02-21T15:39:28.177Z,84.39
2023-02-21T15:42:13.835Z,84.44
2023-02-21T15:45:11.228Z,84.68
2023-02-21T15:47:57.749Z,84.89
2023-02-21T15:50:51.169Z,85.15
2023-02-21T15:53:27.903Z,85.48
2023-02-21T15:56:25.484Z,85.87
2023-02-21T15:59:11.902Z,86.17
2023-02-21T16:01:47.350Z,86.32
2023-02-21T16:04:41.204Z,86.63
2023-02-21T16:07:37.492Z,86.87
2023-02-21T16:10:24.854Z,86.87
2023-02-21T16:13:08.680Z,86.85
2023-02-21T16:16:03.653Z,86.88
2023-02-21T16:18:59.836Z,86.80
2023-02-21T16:22:10.770Z,86.71
2023-02-21T16:25:14.953Z,86.83
2023-02-21T16:28:00.267Z,86.88
2023-02-21T16:30:46.683Z,86.89
2023-02-21T16:33:26.915Z,87.07
2023-02-21T16:36:25.214Z,87.31
2023-02-21T16:39:04.681Z,87.44
2023-02-21T16:41:57.133Z,87.39
2023-02-21T16:44:32.565Z,87.47
2023-02-21T16:47:20.306Z,87.32
2023-02-21T16:50:20.454Z,87.28
2023-02-21T16:53:14.368Z,87.28
2023-02-21T16:56:08.145Z,87.07
2023-02-21T16:58:56.664Z,87.01
2023-02-21T17:01:34.334Z,87.07
2023-02-21T17:04:20.618Z,87.25
2023-02-21T17:07:14.901Z,87.40
2023-02-21T17:10:00.941Z,87.61
2023-02-21T17:12:46.032Z,87.84
2023-02-21T17:15:32.666Z,87.85
2023-02-21T17:18:26.578Z,87.92
2023-02-21T17:21:10.251Z,88.07
2023-02-21T17:23:45.342Z,88.05
2023-02-21T17:26:28.857Z,88.07
2023-02-21T17:29:14.397Z,88.08
2023-02-21T17:31:46.781Z,88.09
2023-02-21T17:34:38.820Z,88.09
2023-02-21T17:37:22.762Z,88.10
2023-02-21T17:40:10.318Z,88.10
2023-02-21T17:42:53.857Z,88.36
2023-02-21T17:45:46.086Z,88.68
2023-02-21T17:48:30.932Z,88.81
2023-02-21T17:51:08.655Z,89.11
2023-02-21T17:54:01.444Z,89.34
2023-02-21T17:56:53.973Z,89.55
2023-02-21T17:59:46.924Z,89.81
2023-02-21T18:02:39.315Z,90.14
2023-02-21T18:05:14.831Z,90.30
2023-02-21T18:08:08.746Z,90.48
2023-02-21T18:11:00.118Z,90.56
2023-02-21T18:13:53.118Z,90.71
2023-02-21T18:16:39.578Z,90.76
2023-02-21T18:19:21.015Z,90.64
2023-02-21T18:22:09.962Z,90.56
2023-02-21T18:24:55.816Z,89.92
2023-02-21T18:27:48.222Z,88.97
2023-02-21T18:30:29.796Z,86.80
2023-02-21T18:33:27.211Z,84.63
2023-02-21T18:36:20.577Z,82.29
2023-02-21T18:39:10.884Z,81.39
2023-02-21T18:42:04.603Z,80.54
2023-02-21T18:44:58.930Z,79.62
2023-02-21T18:47:50.450Z,79.42
2023-02-21T18:50:36.880Z,79.26
2023-02-21T18:53:31.787Z,78.72
2023-02-21T18:56:24.578Z,77.68
2023-02-21T18:59:05.643Z,77.78
2023-02-21T19:01:53.952Z,77.63
2023-02-21T19:04:31.051Z,77.10
2023-02-21T19:07:23.519Z,77.08
2023-02-21T19:10:18.124Z,76.85
2023-02-21T19:13:02.211Z,76.84
2023-02-21T19:15:55.226Z,76.87
2023-02-21T19:18:40.738Z,76.69
2023-02-21T19:21:34.112Z,76.56
2023-02-21T19:24:25.644Z,76.46
2023-02-21T19:27:08.572Z,76.34
2023-02-21T19:29:44.517Z,76.39
2023-02-21T19:32:38.000Z,76.44
2023-02-21T19:35:31.897Z,76.61
2023-02-21T19:38:23.600Z,76.58
2023-02-21T19:40:56.879Z,76.55
2023-02-21T19:44:23.748Z,76.29
2023-02-21T19:47:45.291Z,76.91
2023-02-21T19:50:43.833Z,76.71
2023-02-21T19:53:52.012Z,76.76
2023-02-21T19:56:39.645Z,76.85
2023-02-21T19:59:29.924Z,76.88
2023-02-21T20:02:30.924Z,76.56
2023-02-21T20:05:40.636Z,76.84
2023-02-21T20:08:40.731Z,77.08
2023-02-21T20:11:26.630Z,77.10
2023-02-21T20:14:01.537Z,77.04
2023-02-21T20:16:46.544Z,76.81
2023-02-21T20:19:31.783Z,76.79
2023-02-21T20:22:25.605Z,77.05
2023-02-21T20:25:09.981Z,76.89
2023-02-21T20:28:03.809Z,77.03
2023-02-21T20:30:58.757Z,77.10
2023-02-21T20:33:37.148Z,77.24
2023-02-21T20:36:34.786Z,77.30
2023-02-21T20:39:20.650Z,77.13
2023-02-21T20:42:12.911Z,76.95
2023-02-21T20:45:07.929Z,76.91
2023-02-21T20:48:02.663Z,77.06
2023-02-21T20:51:08.216Z,77.17
2023-02-21T20:53:53.583Z,77.30
2023-02-21T20:56:34.084Z,77.51
2023-02-21T20:59:38.777Z,77.80
2023-02-21T21:02:31.428Z,77.97
2023-02-21T21:05:17.153Z,78.20
2023-02-21T21:08:42.252Z,78.50
2023-02-21T21:11:35.188Z,78.68
2023-02-21T21:14:27.886Z,78.58
2023-02-21T21:17:13.911Z,78.78
2023-02-21T21:20:02.181Z,78.72
2023-02-21T21:22:55.591Z,78.85
2023-02-21T21:25:34.589Z,78.75
2023-02-21T21:28:27.013Z,78.67
2023-02-21T21:31:10.243Z,78.56
2023-02-21T21:34:02.713Z,78.26
2023-02-21T21:36:37.290Z,78.07
2023-02-21T21:39:14.890Z,78.29
2023-02-21T21:41:59.991Z,78.43
2023-02-21T21:44:37.594Z,78.54
2023-02-21T21:47:31.980Z,78.60
2023-02-21T21:50:08.385Z,78.38
2023-02-21T21:53:01.095Z,78.35
2023-02-21T21:55:38.381Z,78.42
2023-02-21T21:58:25.721Z,78.49
2023-02-21T22:01:01.213Z,78.41
2023-02-21T22:03:35.855Z,78.50
2023-02-21T22:06:18.072Z,78.56
2023-02-21T22:09:15.328Z,78.60
2023-02-21T22:11:52.668Z,78.55
2023-02-21T22:14:28.676Z,78.63
2023-02-21T22:17:21.128Z,78.71
2023-02-21T22:20:17.586Z,78.79
2023-02-21T22:22:59.469Z,78.93
2023-02-21T22:25:42.955Z,78.96
2023-02-21T22:28:18.828Z,79.16
2023-02-21T22:31:12.053Z,79.31
2023-02-21T22:34:04.628Z,79.36
2023-02-21T22:36:58.665Z,79.36
2023-02-21T22:39:40.251Z,79.09
2023-02-21T22:42:31.132Z,79.03
2023-02-21T22:45:26.099Z,79.34
2023-02-21T22:48:11.629Z,79.74
2023-02-21T22:50:55.449Z,80.02
2023-02-21T22:53:30.933Z,80.02
2023-02-21T22:56:17.457Z,80.15
2023-02-21T22:59:01.626Z,80.31
2023-02-21T23:01:54.395Z,80.74
2023-02-21T23:04:37.522Z,80.95
2023-02-21T23:07:13.334Z,81.06
2023-02-21T23:09:48.629Z,81.06
2023-02-21T23:12:37.808Z,81.12
2023-02-21T23:15:30.446Z,81.34
2023-02-21T23:18:23.406Z,81.30
2023-02-21T23:20:58.842Z,81.44
2023-02-21T23:23:52.207Z,81.45
2023-02-21T23:26:34.357Z,81.46
2023-02-21T23:29:09.704Z,81.68
2023-02-21T23:32:09.802Z,81.98
2023-02-21T23:35:02.247Z,82.07
2023-02-21T23:37:46.637Z,82.22
2023-02-21T23:40:39.449Z,82.25
2023-02-21T23:43:20.607Z,82.29
2023-02-21T23:46:01.353Z,82.33
2023-02-21T23:48:33.809Z,82.36
2023-02-21T23:51:26.480Z,82.76
2023-02-21T23:54:01.823Z,82.83
2023-02-21T23:56:41.830Z,82.95
2023-02-21T23:59:36.043Z,83.06
